Time;durP1;ratioP1;P1;durP2;ratioP2;P2;SDS_P1;SDS_P2;PMS_P1;PMS_P2;Temp;Humidity;BMP_temperature;BMP_pressure;BME280_temperature;BME280_humidity;BME280_pressure;Samples;Min_cycle;Max_cycle;Signal;HPM_P1;HPM_P2
2021/10/04 00:00:30;;;;;;;1.58;0.65;;;;;;;;;;5089561;28;20458;-77
2021/10/04 00:02:56;;;;;;;1.70;0.57;;;;;;;;;;5088754;28;20103;-77
2021/10/04 00:05:22;;;;;;;1.85;0.50;;;;;;;;;;5088683;28;20035;-77
2021/10/04 00:07:48;;;;;;;1.25;0.50;;;;;;;;;;5086295;28;20028;-77
2021/10/04 00:10:16;;;;;;;2.45;0.63;;;;;;;;;;5088936;28;20420;-77
2021/10/04 00:12:43;;;;;;;1.05;0.60;;;;;;;;;;5103190;28;20032;-76
2021/10/04 00:15:14;;;;;;;2.38;0.70;;;;;;;;;;5087100;28;20089;-76
2021/10/04 00:17:40;;;;;;;1.42;0.60;;;;;;;;;;5103515;28;20395;-76
2021/10/04 00:20:08;;;;;;;0.75;0.43;;;;;;;;;;5088055;28;20024;-76
2021/10/04 00:22:34;;;;;;;1.20;0.50;;;;;;;;;;5088502;28;20031;-77
2021/10/04 00:25:00;;;;;;;2.47;0.40;;;;;;;;;;5087780;28;20020;-76
2021/10/04 00:27:26;;;;;;;0.73;0.43;;;;;;;;;;5087155;28;20043;-76
2021/10/04 00:29:52;;;;;;;3.10;0.50;;;;;;;;;;5089040;28;20028;-77
2021/10/04 00:32:19;;;;;;;1.63;0.60;;;;;;;;;;5088538;28;20036;-77
2021/10/04 00:34:44;;;;;;;1.20;0.60;;;;;;;;;;5088669;28;20567;-76
2021/10/04 00:37:11;;;;;;;1.98;0.60;;;;;;;;;;5087266;28;20115;-77
2021/10/04 00:39:37;;;;;;;1.52;0.57;;;;;;;;;;5085844;28;20373;-77
2021/10/04 00:42:03;;;;;;;1.05;0.50;;;;;;;;;;5103159;28;20028;-77
2021/10/04 00:44:29;;;;;;;1.17;0.40;;;;;;;;;;5087387;28;20043;-77
2021/10/04 00:46:55;;;;;;;0.85;0.50;;;;;;;;;;5087699;28;20032;-77
2021/10/04 00:49:21;;;;;;;0.63;0.50;;;;;;;;;;5088290;28;20496;-77
2021/10/04 00:51:47;;;;;;;1.50;0.50;;;;;;;;;;5087620;28;20107;-77
2021/10/04 00:54:13;;;;;;;1.45;0.45;;;;;;;;;;5088331;28;20039;-76
2021/10/04 00:56:39;;;;;;;2.28;0.70;;;;;;;;;;5085577;28;20024;-77
2021/10/04 00:59:05;;;;;;;2.28;0.70;;;;;;;;;;5088197;28;20510;-77
2021/10/04 01:01:31;;;;;;;2.05;0.57;;;;;;;;;;5088347;28;20102;-77
2021/10/04 01:03:59;;;;;;;2.33;0.60;;;;;;;;;;5087138;28;20083;-77
2021/10/04 01:06:27;;;;;;;2.17;0.82;;;;;;;;;;5102460;28;20032;-77
2021/10/04 01:08:53;;;;;;;2.00;1.02;;;;;;;;;;5087269;28;20090;-77
2021/10/04 01:11:19;;;;;;;1.20;0.60;;;;;;;;;;5087372;28;20030;-76
2021/10/04 01:13:46;;;;;;;1.33;0.50;;;;;;;;;;5086587;28;20577;-77
2021/10/04 01:16:12;;;;;;;1.10;0.45;;;;;;;;;;5086006;28;20035;-77
2021/10/04 01:18:38;;;;;;;1.05;0.50;;;;;;;;;;5103055;28;20032;-77
2021/10/04 01:21:04;;;;;;;1.30;0.60;;;;;;;;;;5087168;28;20157;-77
2021/10/04 01:23:31;;;;;;;1.77;0.50;;;;;;;;;;5086110;28;20031;-77
2021/10/04 01:25:58;;;;;;;3.42;0.80;;;;;;;;;;5086748;28;20032;-77
2021/10/04 01:28:24;;;;;;;1.63;0.50;;;;;;;;;;5086180;28;20754;-77
2021/10/04 01:30:50;;;;;;;1.30;0.50;;;;;;;;;;5087570;28;20513;-77
2021/10/04 01:33:16;;;;;;;1.65;0.68;;;;;;;;;;5086606;28;20040;-77
2021/10/04 01:35:42;;;;;;;2.78;0.50;;;;;;;;;;5087753;28;20118;-77
2021/10/04 01:38:08;;;;;;;2.10;0.60;;;;;;;;;;5086745;28;20032;-77
2021/10/04 01:40:35;;;;;;;1.95;0.65;;;;;;;;;;5086302;28;20412;-77
2021/10/04 01:43:02;;;;;;;1.10;0.50;;;;;;;;;;5087571;28;20036;-77
2021/10/04 01:45:29;;;;;;;1.95;0.93;;;;;;;;;;5085912;28;20036;-77
2021/10/04 01:47:59;;;;;;;1.60;0.70;;;;;;;;;;5087208;28;20027;-76
2021/10/04 01:50:26;;;;;;;1.77;0.80;;;;;;;;;;5086619;28;20036;-77
2021/10/04 01:52:53;;;;;;;1.65;0.68;;;;;;;;;;5086863;28;20032;-77
2021/10/04 01:55:19;;;;;;;1.25;0.60;;;;;;;;;;5086300;28;20032;-77
2021/10/04 01:57:45;;;;;;;2.13;0.60;;;;;;;;;;5085194;28;20411;-76
2021/10/04 02:00:13;;;;;;;1.13;0.50;;;;;;;;;;5086196;28;20172;-76
2021/10/04 02:02:42;;;;;;;1.42;0.40;;;;;;;;;;5087022;28;20024;-77
2021/10/04 02:05:09;;;;;;;0.80;0.32;;;;;;;;;;5086433;28;20024;-77
2021/10/04 02:07:37;;;;;;;2.25;0.50;;;;;;;;;;5086368;28;20032;-76
2021/10/04 02:10:04;;;;;;;1.52;0.50;;;;;;;;;;5086460;28;20043;-76
2021/10/04 02:12:30;;;;;;;1.42;0.50;;;;;;;;;;5085755;28;20161;-76
2021/10/04 02:14:56;;;;;;;1.30;0.50;;;;;;;;;;5086849;28;20032;-77
2021/10/04 02:17:22;;;;;;;3.13;0.73;;;;;;;;;;5086410;28;20069;-77
2021/10/04 02:19:48;;;;;;;1.83;0.70;;;;;;;;;;5086251;28;20101;-77
2021/10/04 02:22:14;;;;;;;1.27;0.50;;;;;;;;;;5086461;28;20062;-76
2021/10/04 02:24:40;;;;;;;1.30;0.47;;;;;;;;;;5086487;28;20028;-76
2021/10/04 02:27:06;;;;;;;3.38;0.40;;;;;;;;;;5084822;28;20024;-76
2021/10/04 02:29:32;;;;;;;1.77;0.50;;;;;;;;;;5086118;28;20061;-76
2021/10/04 02:31:58;;;;;;;1.55;0.50;;;;;;;;;;5086315;28;20099;-77
2021/10/04 02:34:24;;;;;;;1.98;0.65;;;;;;;;;;5086731;28;20463;-76
2021/10/04 02:36:50;;;;;;;1.48;0.60;;;;;;;;;;5085430;28;20034;-77
2021/10/04 02:39:16;;;;;;;0.90;0.40;;;;;;;;;;5086185;28;20024;-77
2021/10/04 02:41:42;;;;;;;1.00;0.50;;;;;;;;;;5085678;28;20051;-76
2021/10/04 02:44:08;;;;;;;1.88;0.60;;;;;;;;;;5085845;28;20075;-77
2021/10/04 02:46:35;;;;;;;0.82;0.40;;;;;;;;;;5085823;28;20519;-77
2021/10/04 02:49:01;;;;;;;3.35;0.60;;;;;;;;;;5086703;28;20020;-77
2021/10/04 02:51:27;;;;;;;1.20;0.45;;;;;;;;;;5090221;28;20401;-77
2021/10/04 02:53:53;;;;;;;2.45;0.77;;;;;;;;;;5090317;28;20147;-77
2021/10/04 02:56:19;;;;;;;1.88;0.68;;;;;;;;;;5105136;28;20539;-77
2021/10/04 02:58:45;;;;;;;1.40;0.60;;;;;;;;;;5088085;28;20028;-77
2021/10/04 03:01:11;;;;;;;2.35;0.60;;;;;;;;;;5090244;28;20051;-77
2021/10/04 03:03:37;;;;;;;1.10;0.60;;;;;;;;;;5089197;28;20410;-76
2021/10/04 03:06:03;;;;;;;1.48;0.50;;;;;;;;;;5087832;28;20111;-77
2021/10/04 03:08:29;;;;;;;1.73;0.55;;;;;;;;;;5088979;28;20036;-76
2021/10/04 03:10:55;;;;;;;1.02;0.40;;;;;;;;;;5089926;28;21687;-77
2021/10/04 03:13:21;;;;;;;0.70;0.43;;;;;;;;;;5089543;28;20081;-77
2021/10/04 03:15:47;;;;;;;1.92;0.47;;;;;;;;;;5089154;28;20028;-76
2021/10/04 03:18:13;;;;;;;2.00;0.55;;;;;;;;;;5089616;28;20508;-77
2021/10/04 03:20:40;;;;;;;0.77;0.30;;;;;;;;;;5089050;28;20612;-76
2021/10/04 03:23:06;;;;;;;1.17;0.60;;;;;;;;;;5088464;28;20032;-76
2021/10/04 03:25:32;;;;;;;2.05;0.30;;;;;;;;;;5087542;28;20031;-76
2021/10/04 03:27:58;;;;;;;1.67;0.40;;;;;;;;;;5089037;28;20043;-76
2021/10/04 03:30:24;;;;;;;1.30;0.57;;;;;;;;;;5089912;28;20032;-76
2021/10/04 03:32:50;;;;;;;2.55;0.57;;;;;;;;;;5088616;28;20084;-76
2021/10/04 03:35:16;;;;;;;1.08;0.50;;;;;;;;;;5088281;28;20721;-76
2021/10/04 03:37:42;;;;;;;2.85;0.60;;;;;;;;;;5087363;28;20024;-76
2021/10/04 03:40:09;;;;;;;2.72;1.23;;;;;;;;;;5088530;28;20028;-76
2021/10/04 03:42:35;;;;;;;1.30;0.57;;;;;;;;;;5088492;28;20024;-76
2021/10/04 03:45:01;;;;;;;2.15;0.50;;;;;;;;;;5088962;28;20032;-77
2021/10/04 03:47:27;;;;;;;0.93;0.50;;;;;;;;;;5087009;28;20032;-76
2021/10/04 03:49:53;;;;;;;1.77;0.50;;;;;;;;;;5088977;28;20026;-77
2021/10/04 03:52:19;;;;;;;1.67;0.52;;;;;;;;;;5103757;28;20411;-76
2021/10/04 03:54:45;;;;;;;0.80;0.40;;;;;;;;;;5086787;28;20502;-76
2021/10/04 03:57:11;;;;;;;0.93;0.50;;;;;;;;;;5088014;28;20039;-76
2021/10/04 03:59:38;;;;;;;1.10;0.43;;;;;;;;;;5089876;28;20054;-75
2021/10/04 04:02:04;;;;;;;1.10;0.52;;;;;;;;;;5088963;28;20403;-75
2021/10/04 04:04:30;;;;;;;2.10;0.80;;;;;;;;;;5103751;28;20653;-76
2021/10/04 04:06:56;;;;;;;2.05;0.60;;;;;;;;;;5088653;28;20055;-76
2021/10/04 04:09:22;;;;;;;1.77;0.60;;;;;;;;;;5088476;28;20047;-76
2021/10/04 04:11:48;;;;;;;1.75;0.28;;;;;;;;;;5088769;28;20063;-75
2021/10/04 04:14:14;;;;;;;2.13;0.60;;;;;;;;;;5088207;28;20072;-76
2021/10/04 04:16:40;;;;;;;1.15;0.50;;;;;;;;;;5088089;28;20499;-75
2021/10/04 04:19:06;;;;;;;1.52;0.50;;;;;;;;;;5103302;28;20052;-76
2021/10/04 04:21:33;;;;;;;0.82;0.50;;;;;;;;;;5087487;28;20052;-77
2021/10/04 04:23:59;;;;;;;1.02;0.40;;;;;;;;;;5088565;28;20153;-77
2021/10/04 04:26:26;;;;;;;1.23;0.55;;;;;;;;;;5087008;28;20499;-76
2021/10/04 04:28:52;;;;;;;3.65;0.60;;;;;;;;;;5088577;28;20024;-76
2021/10/04 04:31:18;;;;;;;1.08;0.63;;;;;;;;;;5087554;28;20065;-77
2021/10/04 04:33:44;;;;;;;1.05;0.40;;;;;;;;;;5085804;28;20128;-76
2021/10/04 04:36:10;;;;;;;0.80;0.50;;;;;;;;;;5087936;28;20059;-77
2021/10/04 04:38:36;;;;;;;1.42;0.47;;;;;;;;;;5087393;28;20060;-77
2021/10/04 04:41:02;;;;;;;0.82;0.40;;;;;;;;;;5087287;28;20020;-76
2021/10/04 04:43:28;;;;;;;1.35;0.50;;;;;;;;;;5086982;28;20028;-77
2021/10/04 04:45:54;;;;;;;1.20;0.50;;;;;;;;;;5087380;28;20081;-76
2021/10/04 04:48:20;;;;;;;2.13;0.50;;;;;;;;;;5085805;28;20023;-77
2021/10/04 04:50:46;;;;;;;0.50;0.40;;;;;;;;;;5087056;28;20031;-76
2021/10/04 04:53:12;;;;;;;1.63;0.60;;;;;;;;;;5088111;28;20074;-76
2021/10/04 04:55:38;;;;;;;1.70;0.47;;;;;;;;;;5087135;28;20487;-76
2021/10/04 04:58:06;;;;;;;2.00;0.77;;;;;;;;;;5086144;28;20479;-77
2021/10/04 05:00:32;;;;;;;1.00;0.60;;;;;;;;;;5088536;28;20035;-76
2021/10/04 05:02:58;;;;;;;0.88;0.50;;;;;;;;;;5087417;28;20475;-76
2021/10/04 05:05:24;;;;;;;2.80;0.68;;;;;;;;;;5087138;28;20028;-76
2021/10/04 05:37:02;;;;;;;1.95;0.70;;;;;;;;;;5104675;27;20532;-82
2021/10/04 05:39:28;;;;;;;1.27;0.60;;;18.00;91.70;;;;;;5103004;28;20031;-81
2021/10/04 05:41:53;;;;;;;3.00;0.77;;;18.00;92.00;;;;;;5101998;28;20028;-79
2021/10/04 05:44:19;;;;;;;3.63;0.50;;;18.00;92.00;;;;;;5103022;28;20030;-81
2021/10/04 05:46:45;;;;;;;1.27;0.55;;;17.90;92.00;;;;;;5106347;28;20050;-81
2021/10/04 05:49:10;;;;;;;1.20;0.60;;;17.90;91.90;;;;;;5102410;28;20497;-79
2021/10/04 05:51:36;;;;;;;2.10;0.47;;;18.00;92.00;;;;;;5107137;28;20451;-75
2021/10/04 05:54:01;;;;;;;4.00;0.50;;;18.00;91.90;;;;;;5107937;28;20061;-77
2021/10/04 05:56:27;;;;;;;2.17;0.55;;;18.00;92.00;;;;;;5108290;28;20403;-78
2021/10/04 05:58:53;;;;;;;2.60;0.70;;;18.00;92.10;;;;;;5108718;28;20095;-78
2021/10/04 06:01:18;;;;;;;2.08;0.60;;;18.00;92.10;;;;;;5108482;28;20028;-78
2021/10/04 06:03:44;;;;;;;3.35;0.68;;;18.00;92.30;;;;;;5107625;28;20115;-80
2021/10/04 06:06:09;;;;;;;1.63;0.75;;;18.00;92.20;;;;;;5108167;28;20077;-78
2021/10/04 06:08:35;;;;;;;28.58;25.48;;;18.00;92.30;;;;;;5106791;28;20028;-78
2021/10/04 06:11:00;;;;;;;9.82;5.20;;;18.00;92.50;;;;;;5108138;28;20491;-76
2021/10/04 06:13:26;;;;;;;5.10;3.30;;;18.00;92.40;;;;;;5108911;28;20072;-76
2021/10/04 06:15:52;;;;;;;6.13;3.80;;;18.10;92.40;;;;;;5108251;28;20132;-76
2021/10/04 06:18:18;;;;;;;6.95;3.17;;;18.10;92.40;;;;;;5107604;28;20038;-77
2021/10/04 06:20:45;;;;;;;4.68;2.78;;;18.10;92.50;;;;;;5107778;28;20023;-77
2021/10/04 06:23:11;;;;;;;6.20;3.13;;;18.10;92.50;;;;;;5108170;28;20019;-77
2021/10/04 06:25:37;;;;;;;8.55;3.05;;;18.10;92.60;;;;;;5107756;28;20026;-77
2021/10/04 06:28:03;;;;;;;5.25;3.13;;;18.10;92.50;;;;;;5117084;28;20092;-77
2021/10/04 06:30:29;;;;;;;3.90;2.58;;;18.10;92.60;;;;;;5117181;28;20016;-77
2021/10/04 06:32:55;;;;;;;5.05;2.53;;;18.10;92.70;;;;;;5107656;28;20103;-78
2021/10/04 06:35:21;;;;;;;7.65;2.92;;;18.10;92.80;;;;;;5106652;28;20513;-81
2021/10/04 06:37:46;;;;;;;7.38;2.55;;;18.10;92.90;;;;;;5107297;28;20395;-76
2021/10/04 06:40:13;;;;;;;6.47;3.03;;;18.10;92.90;;;;;;5107409;28;20380;-78
2021/10/04 06:42:39;;;;;;;4.03;2.25;;;18.10;93.00;;;;;;5107225;28;20028;-81
2021/10/04 06:45:06;;;;;;;3.05;2.20;;;18.20;93.00;;;;;;5116633;28;20073;-79
2021/10/04 06:47:33;;;;;;;10.68;2.28;;;18.10;92.80;;;;;;5118656;28;20102;-81
2021/10/04 06:49:59;;;;;;;7.38;1.90;;;18.10;92.80;;;;;;5114432;28;20069;-81
2021/10/04 06:52:25;;;;;;;2.92;1.73;;;18.20;92.80;;;;;;5114596;28;20031;-80
2021/10/04 06:54:50;;;;;;;5.22;1.92;;;18.20;92.70;;;;;;5113434;28;20043;-80
2021/10/04 06:57:16;;;;;;;5.90;2.08;;;18.10;92.70;;;;;;5098163;28;20024;-77
2021/10/04 06:59:41;;;;;;;5.18;1.70;;;18.20;92.80;;;;;;5092538;28;20081;-80
2021/10/04 07:02:08;;;;;;;4.05;1.58;;;18.10;92.70;;;;;;5092734;28;20032;-79
2021/10/04 07:04:33;;;;;;;8.45;1.80;;;18.20;92.70;;;;;;5093493;28;20392;-78
2021/10/04 07:06:59;;;;;;;6.10;1.70;;;18.20;92.80;;;;;;5091278;28;20024;-79
2021/10/04 07:09:24;;;;;;;3.45;1.80;;;18.20;92.80;;;;;;5092472;28;20027;-80
2021/10/04 07:11:50;;;;;;;17.48;6.85;;;18.20;92.80;;;;;;5091892;28;20105;-78
2021/10/04 07:14:16;;;;;;;7.28;3.08;;;18.20;92.90;;;;;;5092050;28;20170;-81
2021/10/04 07:16:41;;;;;;;11.52;2.50;;;18.20;92.90;;;;;;5090646;28;20051;-78
2021/10/04 07:19:07;;;;;;;8.40;3.60;;;18.20;92.90;;;;;;5090889;28;20028;-79
2021/10/04 07:21:33;;;;;;;10.05;2.88;;;18.20;92.90;;;;;;5093102;28;20024;-79
2021/10/04 07:23:59;;;;;;;10.90;3.10;;;18.20;92.80;;;;;;5092750;28;20403;-83
2021/10/04 07:26:26;;;;;;;5.80;2.10;;;18.20;92.80;;;;;;5093527;28;20365;-81
2021/10/04 07:28:52;;;;;;;7.10;2.40;;;18.20;92.70;;;;;;5093488;28;20111;-78
2021/10/04 07:31:18;;;;;;;8.25;3.50;;;18.30;92.70;;;;;;5091868;28;20099;-78
2021/10/04 07:33:44;;;;;;;7.95;3.25;;;18.20;92.60;;;;;;5091618;28;20032;-78
2021/10/04 07:36:10;;;;;;;7.05;2.53;;;18.20;92.50;;;;;;5091066;28;20039;-79
2021/10/04 07:38:37;;;;;;;7.55;3.05;;;18.30;92.40;;;;;;5092407;28;20483;-79
2021/10/04 07:41:05;;;;;;;8.45;2.90;;;18.30;92.30;;;;;;5093146;28;20027;-80
2021/10/04 07:43:32;;;;;;;5.20;2.45;;;18.30;92.30;;;;;;5092597;28;20104;-80
2021/10/04 07:45:58;;;;;;;5.20;2.20;;;18.30;92.30;;;;;;5092488;28;20024;-81
2021/10/04 07:48:24;;;;;;;6.07;1.77;;;18.30;92.40;;;;;;5093381;28;20055;-79
2021/10/04 07:50:51;;;;;;;5.38;2.22;;;18.30;92.50;;;;;;5092765;28;20035;-80
2021/10/04 07:53:16;;;;;;;4.53;1.70;;;18.40;92.50;;;;;;5092816;28;20016;-80
2021/10/04 07:55:42;;;;;;;6.25;2.15;;;18.40;92.50;;;;;;5092373;28;20089;-81
2021/10/04 07:58:09;;;;;;;3.75;1.55;;;18.40;92.60;;;;;;5092026;28;20028;-77
2021/10/04 08:00:35;;;;;;;4.00;1.75;;;18.40;92.40;;;;;;5091994;28;20028;-82
2021/10/04 08:03:01;;;;;;;9.50;2.45;;;18.40;92.50;;;;;;5092449;28;20028;-78
2021/10/04 08:05:27;;;;;;;7.68;1.70;;;18.40;92.50;;;;;;5090716;28;20065;-82
2021/10/04 08:07:52;;;;;;;7.88;1.33;;;18.40;92.50;;;;;;5093015;28;20103;-79
2021/10/04 08:10:18;;;;;;;9.77;1.75;;;18.50;92.50;;;;;;5092709;28;20032;-80
2021/10/04 08:12:44;;;;;;;7.60;2.08;;;18.50;92.50;;;;;;5091066;28;20024;-81
2021/10/04 08:15:11;;;;;;;3.58;1.50;;;18.50;92.60;;;;;;5092142;28;20043;-80
2021/10/04 08:17:37;;;;;;;12.23;1.65;;;18.60;92.50;;;;;;5091263;28;20024;-80
2021/10/04 08:20:07;;;;;;;3.97;1.60;;;18.70;92.30;;;;;;5090590;28;20024;-81
2021/10/04 08:22:33;;;;;;;6.38;1.98;;;18.70;92.30;;;;;;5091974;28;20024;-83
2021/10/04 08:24:58;;;;;;;8.20;1.90;;;18.70;92.30;;;;;;5092042;28;20024;-79
2021/10/04 08:27:24;;;;;;;5.45;1.48;;;18.70;92.30;;;;;;5092272;28;20097;-81
2021/10/04 08:29:50;;;;;;;8.48;2.35;;;18.70;92.20;;;;;;5090830;28;20036;-79
2021/10/04 08:32:16;;;;;;;4.82;1.73;;;18.80;92.20;;;;;;5090991;28;20035;-81
2021/10/04 08:34:41;;;;;;;6.45;1.60;;;18.80;92.00;;;;;;5090376;28;20119;-77
2021/10/04 08:37:07;;;;;;;4.10;1.40;;;18.80;91.80;;;;;;5091907;28;20024;-77
2021/10/04 08:39:33;;;;;;;6.50;1.20;;;18.80;91.90;;;;;;5090294;28;20027;-77
2021/10/04 08:41:59;;;;;;;9.02;1.90;;;18.80;91.90;;;;;;5091973;28;20077;-78
2021/10/04 08:44:26;;;;;;;9.30;1.67;;;18.80;91.90;;;;;;5090846;28;20024;-81
2021/10/04 08:46:51;;;;;;;5.25;1.50;;;18.80;92.30;;;;;;5090585;28;20099;-76
2021/10/04 08:49:18;;;;;;;4.70;1.50;;;18.90;93.20;;;;;;5091888;28;20515;-77
2021/10/04 08:51:46;;;;;;;5.53;1.48;;;18.80;93.40;;;;;;5076520;28;20484;-76
2021/10/04 08:54:12;;;;;;;3.72;1.30;;;18.90;93.80;;;;;;5071397;28;20448;-77
2021/10/04 08:56:39;;;;;;;5.82;1.25;;;18.90;93.80;;;;;;5071135;28;20039;-77
2021/10/04 08:59:05;;;;;;;8.57;1.80;;;18.90;94.10;;;;;;5077520;28;20391;-77
2021/10/04 09:01:31;;;;;;;6.10;1.48;;;18.90;94.20;;;;;;5091147;28;20103;-79
2021/10/04 09:03:59;;;;;;;5.93;1.38;;;18.90;94.00;;;;;;5091464;28;20054;-77
2021/10/04 09:06:40;;;;;;;7.32;1.65;;;18.90;93.90;;;;;;5091939;28;20103;-79
2021/10/04 09:09:07;;;;;;;3.53;1.02;;;19.00;93.90;;;;;;5091187;28;20476;-80
2021/10/04 09:11:40;;;;;;;4.53;1.23;;;19.00;93.80;;;;;;5090572;28;20484;-78
2021/10/04 09:14:05;;;;;;;6.22;1.48;;;19.00;93.50;;;;;;5090957;28;20035;-77
2021/10/04 09:16:49;;;;;;;8.70;1.80;;;19.10;93.40;;;;;;5086597;28;20044;-75
2021/10/04 09:19:21;;;;;;;5.03;1.40;;;19.10;93.30;;;;;;5090433;28;20117;-77
2021/10/04 09:22:09;;;;;;;5.82;1.40;;;19.10;93.20;;;;;;5090969;28;20129;-77
2021/10/04 09:24:41;;;;;;;5.72;0.90;;;19.10;93.10;;;;;;5090863;28;20098;-77
2021/10/04 09:27:26;;;;;;;3.88;1.13;;;19.10;92.90;;;;;;5091362;28;20025;-81
2021/10/04 09:29:54;;;;;;;4.38;1.08;;;19.10;92.80;;;;;;5091285;28;20169;-80
2021/10/04 09:32:35;;;;;;;5.90;1.40;;;19.10;92.70;;;;;;5090894;28;20388;-79
2021/10/04 09:35:22;;;;;;;3.88;0.82;;;19.10;92.50;;;;;;5091100;28;20062;-79
2021/10/04 09:37:52;;;;;;;6.43;1.13;;;19.10;92.20;;;;;;5089432;28;20081;-79
2021/10/04 09:40:38;;;;;;;4.95;0.90;;;19.10;92.10;;;;;;5087993;28;20065;-77
2021/10/04 09:43:07;;;;;;;6.40;1.25;;;19.20;92.10;;;;;;5087305;28;20116;-80
2021/10/04 09:45:34;;;;;;;6.90;1.50;;;19.20;92.30;;;;;;5090885;28;20032;-79
2021/10/04 09:48:09;;;;;;;5.30;1.05;;;19.20;92.00;;;;;;5090347;28;20101;-79
2021/10/04 09:50:34;;;;;;;2.63;0.85;;;19.20;91.90;;;;;;5090581;28;20024;-79
2021/10/04 09:53:03;;;;;;;6.15;1.02;;;19.20;91.80;;;;;;5091027;28;20017;-79
2021/10/04 09:55:29;;;;;;;4.18;1.10;;;19.20;91.70;;;;;;5089732;28;20516;-79
2021/10/04 09:57:54;;;;;;;6.28;1.45;;;19.20;91.60;;;;;;5091027;28;20020;-77
2021/10/04 10:00:20;;;;;;;3.50;0.85;;;19.20;91.50;;;;;;5090448;28;20024;-77
2021/10/04 10:02:53;;;;;;;5.88;0.80;;;19.30;91.50;;;;;;5089500;28;20028;-77
2021/10/04 10:05:20;;;;;;;4.20;1.33;;;19.30;91.40;;;;;;5090322;28;20020;-78
2021/10/04 10:07:46;;;;;;;7.00;1.48;;;19.30;91.30;;;;;;5090459;28;20039;-77
2021/10/04 10:10:11;;;;;;;5.30;1.52;;;19.30;91.30;;;;;;5090240;28;20032;-76
2021/10/04 10:12:37;;;;;;;4.20;0.98;;;19.30;91.30;;;;;;5089807;28;20031;-75
2021/10/04 13:02:06;;;;;;;5.20;1.13;;;20.60;91.40;;;;;;5087585;28;20181;-80
2021/10/04 13:04:37;;;;;;;3.55;0.80;;;20.60;91.60;;;;;;5101955;28;20149;-77
2021/10/04 13:07:05;;;;;;;6.10;1.15;;;20.60;91.50;;;;;;5107072;28;20107;-77
2021/10/04 13:09:32;;;;;;;4.95;0.82;;;20.60;91.50;;;;;;5108407;28;20020;-78
2021/10/04 13:11:58;;;;;;;4.00;1.00;;;20.60;91.40;;;;;;5108406;28;20107;-77
2021/10/04 13:14:24;;;;;;;4.18;1.05;;;20.70;91.40;;;;;;5108537;28;20108;-78
2021/10/04 13:16:54;;;;;;;4.90;1.17;;;20.70;91.30;;;;;;5107026;28;20031;-78
2021/10/04 13:19:21;;;;;;;3.35;0.95;;;20.70;91.20;;;;;;5108413;28;20047;-78
2021/10/04 13:21:47;;;;;;;5.82;1.10;;;20.70;91.10;;;;;;5108148;28;20028;-77
2021/10/04 13:24:14;;;;;;;4.18;1.00;;;20.70;91.00;;;;;;5107413;28;20035;-79
2021/10/04 13:26:41;;;;;;;4.63;0.93;;;20.80;90.90;;;;;;5108214;28;20020;-78
2021/10/04 13:29:08;;;;;;;5.57;1.33;;;20.80;90.90;;;;;;5108096;28;20043;-77
2021/10/04 13:31:34;;;;;;;6.10;1.25;;;20.90;90.80;;;;;;5106733;28;20035;-77
2021/10/04 13:33:59;;;;;;;3.40;1.17;;;20.90;90.20;;;;;;5108223;28;20458;-77
2021/10/04 13:36:25;;;;;;;6.25;1.55;;;20.90;90.30;;;;;;5108536;28;20024;-77
2021/10/04 13:38:52;;;;;;;6.55;1.13;;;21.00;90.10;;;;;;5107333;28;20103;-77
2021/10/04 13:41:18;;;;;;;8.25;1.55;;;21.00;90.10;;;;;;5108055;28;20161;-77
2021/10/04 13:43:44;;;;;;;5.90;1.00;;;21.00;89.40;;;;;;5107810;28;20437;-77
2021/10/04 13:46:10;;;;;;;9.25;1.30;;;21.00;89.30;;;;;;5108250;28;20031;-77
2021/10/04 13:48:36;;;;;;;8.27;1.05;;;21.00;88.40;;;;;;5108982;28;20467;-76
2021/10/04 13:51:04;;;;;;;6.20;1.00;;;21.00;88.40;;;;;;5107942;28;20031;-77
2021/10/04 13:53:30;;;;;;;4.88;1.35;;;21.00;88.30;;;;;;5107776;28;20059;-76
2021/10/04 13:56:01;;;;;;;4.97;1.38;;;21.00;88.40;;;;;;5107830;28;20065;-81
2021/10/04 13:58:26;;;;;;;4.35;0.82;;;21.00;88.70;;;;;;5107331;28;20027;-76
2021/10/04 14:00:52;;;;;;;6.78;0.85;;;21.00;88.60;;;;;;5107688;28;20028;-78
2021/10/04 14:03:18;;;;;;;3.67;0.73;;;21.00;88.90;;;;;;5107599;28;20028;-77
2021/10/04 14:05:44;;;;;;;8.52;1.33;;;21.00;89.00;;;;;;5107426;28;20081;-77
2021/10/04 14:08:10;;;;;;;5.55;1.08;;;21.10;88.60;;;;;;5107564;28;20016;-76
2021/10/04 14:10:35;;;;;;;3.70;0.98;;;21.10;88.80;;;;;;5106006;28;20490;-77
2021/10/04 14:13:01;;;;;;;6.43;1.13;;;21.10;89.00;;;;;;5095930;28;20028;-77
2021/10/04 14:15:27;;;;;;;4.47;1.10;;;21.10;88.90;;;;;;5093587;28;20031;-77
2021/10/04 14:17:53;;;;;;;5.30;1.05;;;21.20;89.70;;;;;;5090001;28;20067;-76
2021/10/04 14:20:19;;;;;;;6.28;0.95;;;21.20;89.00;;;;;;5073174;28;20029;-77
2021/10/04 14:22:45;;;;;;;3.28;0.70;;;21.20;88.90;;;;;;5073244;28;20104;-77
2021/10/04 14:25:14;;;;;;;6.00;1.00;;;21.20;89.00;;;;;;5072297;28;20021;-77
2021/10/04 14:27:40;;;;;;;4.43;0.90;;;21.20;88.90;;;;;;5071509;28;20024;-77
2021/10/04 14:30:07;;;;;;;5.78;0.93;;;21.30;88.80;;;;;;5072076;28;20066;-77
2021/10/04 14:32:34;;;;;;;6.72;1.20;;;21.30;88.90;;;;;;5071745;28;20013;-77
2021/10/04 14:34:59;;;;;;;4.82;0.70;;;21.40;88.90;;;;;;5071825;28;20487;-77
2021/10/04 14:37:25;;;;;;;4.05;0.93;;;21.40;88.90;;;;;;5070740;28;20025;-77
2021/10/04 14:39:52;;;;;;;3.53;0.98;;;21.40;88.80;;;;;;5072183;28;20036;-77
2021/10/04 14:42:17;;;;;;;3.53;0.70;;;21.40;88.70;;;;;;5073015;28;20373;-76
2021/10/04 14:44:43;;;;;;;2.05;0.93;;;21.40;88.60;;;;;;5072363;28;20028;-77
2021/10/04 14:47:09;;;;;;;4.75;1.00;;;21.40;88.60;;;;;;5071688;28;20032;-77
2021/10/04 14:49:34;;;;;;;4.38;1.00;;;21.40;88.60;;;;;;5072079;28;20094;-77
2021/10/04 14:52:00;;;;;;;4.55;1.00;;;21.40;88.50;;;;;;5071969;28;20063;-77
2021/10/04 14:54:25;;;;;;;2.50;0.80;;;21.40;88.40;;;;;;5072801;28;20029;-77
2021/10/04 14:56:51;;;;;;;4.82;0.90;;;21.40;88.50;;;;;;5072982;28;20028;-77
2021/10/04 14:59:17;;;;;;;4.40;0.95;;;21.40;87.90;;;;;;5071437;28;20035;-77
2021/10/04 15:01:43;;;;;;;3.65;1.10;;;21.40;88.50;;;;;;5072297;28;20044;-77
2021/10/04 15:04:08;;;;;;;5.35;0.90;;;21.40;88.70;;;;;;5072991;28;20016;-77
2021/10/04 15:06:35;;;;;;;4.63;1.15;;;21.40;88.70;;;;;;5071297;28;20028;-77
2021/10/04 15:09:03;;;;;;;3.95;0.70;;;21.50;88.60;;;;;;5071002;28;20024;-77
2021/10/04 15:11:29;;;;;;;3.00;0.68;;;21.50;88.60;;;;;;5072118;28;20107;-77
2021/10/04 15:13:55;;;;;;;1.63;0.60;;;21.60;88.60;;;;;;5072180;28;20086;-77
2021/10/04 15:16:21;;;;;;;3.63;0.80;;;21.60;88.70;;;;;;5072635;28;20029;-77
2021/10/04 15:18:47;;;;;;;3.25;0.73;;;21.60;88.60;;;;;;5072003;28;20028;-78
2021/10/04 15:21:15;;;;;;;5.68;0.98;;;21.60;88.50;;;;;;5070848;28;20078;-78
2021/10/04 15:23:40;;;;;;;2.63;0.80;;;21.70;88.50;;;;;;5071194;28;20392;-77
2021/10/04 15:26:06;;;;;;;5.43;1.15;;;21.70;88.50;;;;;;5071931;28;20028;-78
2021/10/04 15:28:32;;;;;;;1.98;0.60;;;21.70;88.30;;;;;;5071137;28;20024;-76
2021/10/04 15:30:58;;;;;;;2.53;0.60;;;21.70;88.40;;;;;;5067971;28;20024;-76
2021/10/04 15:33:23;;;;;;;3.35;0.70;;;21.70;88.30;;;;;;5072145;28;20064;-77
2021/10/04 15:35:50;;;;;;;3.33;0.55;;;21.80;88.40;;;;;;5070821;28;20112;-80
2021/10/04 15:38:16;;;;;;;5.40;1.13;;;21.80;88.20;;;;;;5071976;28;20095;-78
2021/10/04 15:40:45;;;;;;;3.40;0.80;;;21.80;88.00;;;;;;5071068;28;20576;-78
2021/10/04 15:43:13;;;;;;;4.00;1.00;;;21.80;87.90;;;;;;5071206;28;20462;-78
2021/10/04 15:45:40;;;;;;;3.10;0.60;;;21.80;87.60;;;;;;5071863;28;20047;-78
2021/10/04 15:48:06;;;;;;;2.50;0.90;;;21.80;87.50;;;;;;5070783;28;20024;-77
2021/10/04 15:50:32;;;;;;;5.72;0.73;;;21.90;86.80;;;;;;5069991;28;20025;-77
2021/10/04 15:52:59;;;;;;;3.97;0.95;;;21.90;87.60;;;;;;5071957;28;20103;-77
2021/10/04 15:55:24;;;;;;;3.70;0.80;;;21.90;87.50;;;;;;5072397;28;20054;-77
2021/10/04 15:57:50;;;;;;;2.45;0.63;;;21.90;87.50;;;;;;5071612;28;20033;-76
2021/10/04 16:00:16;;;;;;;3.22;0.95;;;21.90;87.50;;;;;;5070365;28;20032;-76
2021/10/04 16:02:41;;;;;;;3.20;0.85;;;21.90;87.40;;;;;;5071545;28;20443;-76
2021/10/04 16:05:08;;;;;;;3.53;1.13;;;21.90;87.40;;;;;;5071740;28;20017;-77
2021/10/04 16:07:37;;;;;;;3.67;0.70;;;21.90;87.40;;;;;;5071494;28;20024;-78
2021/10/04 16:10:03;;;;;;;4.00;0.75;;;21.90;87.30;;;;;;5070181;28;20029;-77
2021/10/04 16:12:29;;;;;;;8.85;0.82;;;21.90;88.10;;;;;;5067937;28;20473;-77
2021/10/04 16:14:55;;;;;;;3.22;0.93;;;21.90;87.70;;;;;;5070999;28;20024;-77
2021/10/04 16:17:21;;;;;;;5.70;0.93;;;21.90;87.90;;;;;;5071617;28;20029;-77
2021/10/04 16:19:46;;;;;;;2.38;0.70;;;21.90;88.10;;;;;;5069626;28;20074;-77
2021/10/04 16:22:12;;;;;;;4.63;1.00;;;21.90;88.20;;;;;;5071339;28;20472;-77
2021/10/04 16:24:38;;;;;;;6.20;0.80;;;21.90;88.30;;;;;;5070962;28;20072;-76
2021/10/04 16:27:04;;;;;;;4.18;0.90;;;21.90;88.40;;;;;;5069970;28;20037;-76
2021/10/04 16:29:29;;;;;;;6.40;1.10;;;21.90;88.90;;;;;;5070989;28;20070;-75
2021/10/04 16:31:55;;;;;;;3.80;0.98;;;21.90;89.00;;;;;;5060396;28;20035;-76
2021/10/04 16:34:20;;;;;;;3.53;0.95;;;21.90;89.10;;;;;;5061978;28;20073;-76
2021/10/04 16:36:46;;;;;;;6.20;1.00;;;21.80;89.30;;;;;;5069806;28;20103;-76
2021/10/04 16:39:13;;;;;;;4.05;0.85;;;21.80;89.30;;;;;;5086444;28;20479;-76